Terminal Aerodrome Forecast
Issued by NWS

Home | Current Version | Previous Version | Text Only | Print | Product List | Glossary On
Versions: 1 2 3 4 5 6 7 8 9 10 11 12 13 14 15 16 17 18 19 20
000
FTUS41 KBOX 211124
TAFBED
TAF
KBED 211124Z 2112/2212 VRB03KT 6SM BR OVC005
     FM211400 VRB03KT P6SM OVC010
     FM211800 25005KT P6SM BKN050
     FM212100 27004KT P6SM SCT090
     FM220700 00000KT P6SM BKN250=

USA.gov is the U.S. government's official web portal to all federal, state and local government web resources and services.